sensor_id;sensor_type;location;lat;lon;timestamp;temperature;humidity
2907;DHT22;1463;51.070;16.998;2023-07-02T00:00:04;20.90;99.90
2907;DHT22;1463;51.070;16.998;2023-07-02T00:02:32;20.90;99.90
2907;DHT22;1463;51.070;16.998;2023-07-02T00:05:00;20.90;99.90
2907;DHT22;1463;51.070;16.998;2023-07-02T00:07:27;20.90;99.90
2907;DHT22;1463;51.070;16.998;2023-07-02T00:09:54;20.90;99.90
2907;DHT22;1463;51.070;16.998;2023-07-02T00:12:22;21.00;99.90
2907;DHT22;1463;51.070;16.998;2023-07-02T00:14:51;21.00;99.90
2907;DHT22;1463;51.070;16.998;2023-07-02T00:17:20;21.10;99.90
2907;DHT22;1463;51.070;16.998;2023-07-02T00:19:47;21.00;99.90
2907;DHT22;1463;51.070;16.998;2023-07-02T00:22:20;21.10;99.90
2907;DHT22;1463;51.070;16.998;2023-07-02T00:24:48;21.10;99.90
2907;DHT22;1463;51.070;16.998;2023-07-02T00:27:17;21.00;99.90
2907;DHT22;1463;51.070;16.998;2023-07-02T00:29:44;21.00;99.90
2907;DHT22;1463;51.070;16.998;2023-07-02T00:32:13;21.00;99.90
2907;DHT22;1463;51.070;16.998;2023-07-02T00:34:40;21.00;99.90
2907;DHT22;1463;51.070;16.998;2023-07-02T00:37:08;21.00;99.90
2907;DHT22;1463;51.070;16.998;2023-07-02T00:39:35;21.00;99.90
2907;DHT22;1463;51.070;16.998;2023-07-02T00:42:06;21.00;99.90
2907;DHT22;1463;51.070;16.998;2023-07-02T00:44:34;21.00;99.90
2907;DHT22;1463;51.070;16.998;2023-07-02T00:47:06;21.00;99.90
2907;DHT22;1463;51.070;16.998;2023-07-02T00:49:35;21.00;99.90
2907;DHT22;1463;51.070;16.998;2023-07-02T00:52:04;21.00;99.90
2907;DHT22;1463;51.070;16.998;2023-07-02T00:54:32;21.00;99.90
2907;DHT22;1463;51.070;16.998;2023-07-02T00:56:59;20.90;99.90
2907;DHT22;1463;51.070;16.998;2023-07-02T00:59:28;21.00;99.90
2907;DHT22;1463;51.070;16.998;2023-07-02T01:01:56;20.90;99.90
2907;DHT22;1463;51.070;16.998;2023-07-02T01:04:23;20.90;99.90
2907;DHT22;1463;51.070;16.998;2023-07-02T01:06:54;21.00;99.90
2907;DHT22;1463;51.070;16.998;2023-07-02T01:09:24;21.00;99.90
2907;DHT22;1463;51.070;16.998;2023-07-02T01:11:54;20.90;99.90
2907;DHT22;1463;51.070;16.998;2023-07-02T01:14:27;20.90;99.90
2907;DHT22;1463;51.070;16.998;2023-07-02T01:16:56;20.90;99.90
2907;DHT22;1463;51.070;16.998;2023-07-02T01:19:41;20.80;99.90
2907;DHT22;1463;51.070;16.998;2023-07-02T01:22:09;20.90;99.90
2907;DHT22;1463;51.070;16.998;2023-07-02T01:24:39;20.80;99.90
2907;DHT22;1463;51.070;16.998;2023-07-02T01:27:10;20.80;99.90
2907;DHT22;1463;51.070;16.998;2023-07-02T01:29:37;20.80;99.90
2907;DHT22;1463;51.070;16.998;2023-07-02T01:32:06;20.70;99.90
2907;DHT22;1463;51.070;16.998;2023-07-02T01:34:35;20.70;99.90
2907;DHT22;1463;51.070;16.998;2023-07-02T01:37:03;20.70;99.90
2907;DHT22;1463;51.070;16.998;2023-07-02T01:39:31;20.80;99.90
2907;DHT22;1463;51.070;16.998;2023-07-02T01:42:08;20.70;99.90
2907;DHT22;1463;51.070;16.998;2023-07-02T01:44:39;20.80;99.90
2907;DHT22;1463;51.070;16.998;2023-07-02T01:47:06;20.80;99.90
2907;DHT22;1463;51.070;16.998;2023-07-02T01:49:35;20.80;99.90
2907;DHT22;1463;51.070;16.998;2023-07-02T01:52:04;20.70;99.90
2907;DHT22;1463;51.070;16.998;2023-07-02T01:54:35;20.70;99.90
2907;DHT22;1463;51.070;16.998;2023-07-02T01:57:04;20.70;99.90
2907;DHT22;1463;51.070;16.998;2023-07-02T01:59:31;20.70;99.90
2907;DHT22;1463;51.070;16.998;2023-07-02T02:01:59;20.70;99.90
2907;DHT22;1463;51.070;16.998;2023-07-02T02:04:26;20.70;99.90
2907;DHT22;1463;51.070;16.998;2023-07-02T02:06:58;20.70;99.90
2907;DHT22;1463;51.070;16.998;2023-07-02T02:09:26;20.60;99.90
2907;DHT22;1463;51.070;16.998;2023-07-02T02:11:56;20.70;99.90
2907;DHT22;1463;51.070;16.998;2023-07-02T02:14:23;20.70;99.90
2907;DHT22;1463;51.070;16.998;2023-07-02T02:16:51;20.60;99.90
2907;DHT22;1463;51.070;16.998;2023-07-02T02:19:18;20.60;99.90
2907;DHT22;1463;51.070;16.998;2023-07-02T02:21:46;20.70;99.90
2907;DHT22;1463;51.070;16.998;2023-07-02T02:24:14;20.60;99.90
2907;DHT22;1463;51.070;16.998;2023-07-02T02:26:42;20.60;99.90
2907;DHT22;1463;51.070;16.998;2023-07-02T02:29:09;20.50;99.90
2907;DHT22;1463;51.070;16.998;2023-07-02T02:31:37;20.50;99.90
2907;DHT22;1463;51.070;16.998;2023-07-02T02:34:04;20.50;99.90
2907;DHT22;1463;51.070;16.998;2023-07-02T02:36:31;20.50;99.90
2907;DHT22;1463;51.070;16.998;2023-07-02T02:38:59;20.50;99.90
2907;DHT22;1463;51.070;16.998;2023-07-02T02:41:28;20.50;99.90
2907;DHT22;1463;51.070;16.998;2023-07-02T02:43:55;20.50;99.90
2907;DHT22;1463;51.070;16.998;2023-07-02T02:46:23;20.50;99.90
2907;DHT22;1463;51.070;16.998;2023-07-02T02:48:53;20.40;99.90
2907;DHT22;1463;51.070;16.998;2023-07-02T02:51:20;20.40;99.90
2907;DHT22;1463;51.070;16.998;2023-07-02T02:53:48;20.50;99.90
2907;DHT22;1463;51.070;16.998;2023-07-02T02:56:15;20.50;99.90
2907;DHT22;1463;51.070;16.998;2023-07-02T02:58:44;20.60;99.90
2907;DHT22;1463;51.070;16.998;2023-07-02T03:01:14;20.70;99.90
2907;DHT22;1463;51.070;16.998;2023-07-02T03:03:41;20.70;99.90
2907;DHT22;1463;51.070;16.998;2023-07-02T03:06:11;20.60;99.90
2907;DHT22;1463;51.070;16.998;2023-07-02T03:08:40;20.50;99.90
2907;DHT22;1463;51.070;16.998;2023-07-02T03:11:07;20.50;99.90
2907;DHT22;1463;51.070;16.998;2023-07-02T03:13:35;20.50;99.90
2907;DHT22;1463;51.070;16.998;2023-07-02T03:16:04;20.50;99.90
2907;DHT22;1463;51.070;16.998;2023-07-02T03:18:32;20.50;99.90
2907;DHT22;1463;51.070;16.998;2023-07-02T03:20:59;20.50;99.90
2907;DHT22;1463;51.070;16.998;2023-07-02T03:23:27;20.50;99.90
2907;DHT22;1463;51.070;16.998;2023-07-02T03:25:54;20.50;99.90
2907;DHT22;1463;51.070;16.998;2023-07-02T03:28:23;20.40;99.90
2907;DHT22;1463;51.070;16.998;2023-07-02T03:30:52;20.50;99.90
2907;DHT22;1463;51.070;16.998;2023-07-02T03:33:21;20.50;99.90
2907;DHT22;1463;51.070;16.998;2023-07-02T03:35:50;20.40;99.90
2907;DHT22;1463;51.070;16.998;2023-07-02T03:38:17;20.40;99.90
2907;DHT22;1463;51.070;16.998;2023-07-02T03:40:45;20.40;99.90
2907;DHT22;1463;51.070;16.998;2023-07-02T03:43:12;20.30;99.90
2907;DHT22;1463;51.070;16.998;2023-07-02T03:45:40;20.40;99.90
2907;DHT22;1463;51.070;16.998;2023-07-02T03:48:10;20.30;99.90
2907;DHT22;1463;51.070;16.998;2023-07-02T03:50:39;20.40;99.90
2907;DHT22;1463;51.070;16.998;2023-07-02T03:53:06;20.40;99.90
2907;DHT22;1463;51.070;16.998;2023-07-02T03:55:34;20.40;99.90
2907;DHT22;1463;51.070;16.998;2023-07-02T03:58:01;20.40;99.90
2907;DHT22;1463;51.070;16.998;2023-07-02T04:00:29;20.40;99.90
2907;DHT22;1463;51.070;16.998;2023-07-02T04:02:56;20.40;99.90
2907;DHT22;1463;51.070;16.998;2023-07-02T04:05:27;20.40;99.90
2907;DHT22;1463;51.070;16.998;2023-07-02T04:07:55;20.40;99.90
2907;DHT22;1463;51.070;16.998;2023-07-02T04:10:23;20.40;99.90
2907;DHT22;1463;51.070;16.998;2023-07-02T04:12:50;20.40;99.90
2907;DHT22;1463;51.070;16.998;2023-07-02T04:15:18;20.40;99.90
2907;DHT22;1463;51.070;16.998;2023-07-02T04:17:48;20.40;99.90
2907;DHT22;1463;51.070;16.998;2023-07-02T04:20:15;20.40;99.90
2907;DHT22;1463;51.070;16.998;2023-07-02T04:22:48;20.40;99.90
2907;DHT22;1463;51.070;16.998;2023-07-02T04:25:17;20.40;99.90
2907;DHT22;1463;51.070;16.998;2023-07-02T04:27:44;20.40;99.90
2907;DHT22;1463;51.070;16.998;2023-07-02T04:30:12;20.60;99.90
2907;DHT22;1463;51.070;16.998;2023-07-02T04:32:41;20.60;99.90
2907;DHT22;1463;51.070;16.998;2023-07-02T04:35:09;20.60;99.90
2907;DHT22;1463;51.070;16.998;2023-07-02T04:37:37;20.70;99.90
2907;DHT22;1463;51.070;16.998;2023-07-02T04:40:05;20.70;99.90
2907;DHT22;1463;51.070;16.998;2023-07-02T04:42:36;20.80;99.90
2907;DHT22;1463;51.070;16.998;2023-07-02T04:45:05;20.80;99.90
2907;DHT22;1463;51.070;16.998;2023-07-02T04:47:33;20.80;99.90
2907;DHT22;1463;51.070;16.998;2023-07-02T04:50:00;20.80;99.90
2907;DHT22;1463;51.070;16.998;2023-07-02T04:52:28;20.70;99.90
2907;DHT22;1463;51.070;16.998;2023-07-02T04:54:55;20.70;99.90
2907;DHT22;1463;51.070;16.998;2023-07-02T04:57:23;20.70;99.90
2907;DHT22;1463;51.070;16.998;2023-07-02T04:59:51;20.70;99.90
2907;DHT22;1463;51.070;16.998;2023-07-02T05:02:20;20.70;99.90
2907;DHT22;1463;51.070;16.998;2023-07-02T05:04:47;20.70;99.90
2907;DHT22;1463;51.070;16.998;2023-07-02T05:07:16;20.70;99.90
2907;DHT22;1463;51.070;16.998;2023-07-02T05:09:43;20.70;99.90
2907;DHT22;1463;51.070;16.998;2023-07-02T05:12:11;20.70;99.90
2907;DHT22;1463;51.070;16.998;2023-07-02T05:14:38;20.70;99.90
2907;DHT22;1463;51.070;16.998;2023-07-02T05:17:07;20.60;99.90
2907;DHT22;1463;51.070;16.998;2023-07-02T05:19:34;20.60;99.90
2907;DHT22;1463;51.070;16.998;2023-07-02T05:22:02;20.70;99.90
2907;DHT22;1463;51.070;16.998;2023-07-02T05:24:29;20.70;99.90
2907;DHT22;1463;51.070;16.998;2023-07-02T05:26:57;20.70;99.90
2907;DHT22;1463;51.070;16.998;2023-07-02T05:29:24;20.70;99.90
2907;DHT22;1463;51.070;16.998;2023-07-02T05:31:51;20.70;99.90
2907;DHT22;1463;51.070;16.998;2023-07-02T05:34:20;20.70;99.90
2907;DHT22;1463;51.070;16.998;2023-07-02T05:36:50;20.70;99.90
2907;DHT22;1463;51.070;16.998;2023-07-02T05:39:17;20.70;99.90
2907;DHT22;1463;51.070;16.998;2023-07-02T05:41:44;20.70;99.90
2907;DHT22;1463;51.070;16.998;2023-07-02T05:44:12;20.70;99.90
2907;DHT22;1463;51.070;16.998;2023-07-02T05:46:39;20.60;99.90
2907;DHT22;1463;51.070;16.998;2023-07-02T05:49:07;20.70;99.90
2907;DHT22;1463;51.070;16.998;2023-07-02T05:51:36;20.60;99.90
2907;DHT22;1463;51.070;16.998;2023-07-02T05:54:03;20.60;99.90
2907;DHT22;1463;51.070;16.998;2023-07-02T05:56:30;20.70;99.90
2907;DHT22;1463;51.070;16.998;2023-07-02T05:58:58;20.60;99.90
2907;DHT22;1463;51.070;16.998;2023-07-02T06:01:25;20.60;99.90
2907;DHT22;1463;51.070;16.998;2023-07-02T06:03:53;20.60;99.90
2907;DHT22;1463;51.070;16.998;2023-07-02T06:06:21;20.60;99.90
2907;DHT22;1463;51.070;16.998;2023-07-02T06:08:54;20.70;99.90
2907;DHT22;1463;51.070;16.998;2023-07-02T06:11:21;20.80;99.90
2907;DHT22;1463;51.070;16.998;2023-07-02T06:13:49;20.80;99.90
2907;DHT22;1463;51.070;16.998;2023-07-02T06:16:16;20.80;99.90
2907;DHT22;1463;51.070;16.998;2023-07-02T06:18:44;20.80;99.90
2907;DHT22;1463;51.070;16.998;2023-07-02T06:21:11;20.80;99.90
2907;DHT22;1463;51.070;16.998;2023-07-02T06:23:42;20.90;99.90
2907;DHT22;1463;51.070;16.998;2023-07-02T06:26:11;20.90;99.90
2907;DHT22;1463;51.070;16.998;2023-07-02T06:28:39;20.80;99.90
2907;DHT22;1463;51.070;16.998;2023-07-02T06:31:06;20.80;99.90
2907;DHT22;1463;51.070;16.998;2023-07-02T06:33:34;20.80;99.90
2907;DHT22;1463;51.070;16.998;2023-07-02T06:36:01;20.70;99.90
2907;DHT22;1463;51.070;16.998;2023-07-02T06:38:28;20.70;99.90
2907;DHT22;1463;51.070;16.998;2023-07-02T06:40:56;20.70;99.90
2907;DHT22;1463;51.070;16.998;2023-07-02T06:43:25;20.70;99.90
2907;DHT22;1463;51.070;16.998;2023-07-02T06:45:52;20.60;99.90
2907;DHT22;1463;51.070;16.998;2023-07-02T06:48:19;20.60;99.90
2907;DHT22;1463;51.070;16.998;2023-07-02T06:50:47;20.60;99.90
2907;DHT22;1463;51.070;16.998;2023-07-02T06:53:18;20.50;99.90
2907;DHT22;1463;51.070;16.998;2023-07-02T06:55:45;20.50;99.90
2907;DHT22;1463;51.070;16.998;2023-07-02T06:58:13;20.40;99.90
2907;DHT22;1463;51.070;16.998;2023-07-02T07:00:42;20.40;99.90
2907;DHT22;1463;51.070;16.998;2023-07-02T07:03:09;20.30;99.90
2907;DHT22;1463;51.070;16.998;2023-07-02T07:05:37;20.30;99.90
2907;DHT22;1463;51.070;16.998;2023-07-02T07:08:04;20.20;99.90
2907;DHT22;1463;51.070;16.998;2023-07-02T07:10:32;20.20;99.90
2907;DHT22;1463;51.070;16.998;2023-07-02T07:13:00;20.20;99.90
2907;DHT22;1463;51.070;16.998;2023-07-02T07:15:32;20.30;99.90
2907;DHT22;1463;51.070;16.998;2023-07-02T07:18:01;20.30;99.90
2907;DHT22;1463;51.070;16.998;2023-07-02T07:20:28;20.40;99.90
2907;DHT22;1463;51.070;16.998;2023-07-02T07:22:56;20.50;99.90
2907;DHT22;1463;51.070;16.998;2023-07-02T07:25:24;20.60;99.90
2907;DHT22;1463;51.070;16.998;2023-07-02T07:27:52;20.70;99.90
2907;DHT22;1463;51.070;16.998;2023-07-02T07:30:27;20.90;99.90
2907;DHT22;1463;51.070;16.998;2023-07-02T07:32:56;20.90;99.90
2907;DHT22;1463;51.070;16.998;2023-07-02T07:35:24;21.00;99.90
2907;DHT22;1463;51.070;16.998;2023-07-02T07:37:51;21.10;99.90
2907;DHT22;1463;51.070;16.998;2023-07-02T07:40:19;21.20;99.90
2907;DHT22;1463;51.070;16.998;2023-07-02T07:42:48;21.30;99.90
2907;DHT22;1463;51.070;16.998;2023-07-02T07:45:17;21.40;99.90
2907;DHT22;1463;51.070;16.998;2023-07-02T07:47:47;21.50;99.90
2907;DHT22;1463;51.070;16.998;2023-07-02T07:50:14;21.60;99.90
2907;DHT22;1463;51.070;16.998;2023-07-02T07:52:43;21.70;99.90
2907;DHT22;1463;51.070;16.998;2023-07-02T07:55:12;21.70;99.90
2907;DHT22;1463;51.070;16.998;2023-07-02T07:57:39;21.70;99.90
2907;DHT22;1463;51.070;16.998;2023-07-02T08:00:08;21.70;99.90
2907;DHT22;1463;51.070;16.998;2023-07-02T08:02:37;21.60;99.90
2907;DHT22;1463;51.070;16.998;2023-07-02T08:05:08;21.50;99.90
2907;DHT22;1463;51.070;16.998;2023-07-02T08:07:35;21.40;99.90
2907;DHT22;1463;51.070;16.998;2023-07-02T08:10:03;21.30;99.90
2907;DHT22;1463;51.070;16.998;2023-07-02T08:12:30;21.20;99.90
2907;DHT22;1463;51.070;16.998;2023-07-02T08:14:58;21.20;99.90
2907;DHT22;1463;51.070;16.998;2023-07-02T08:17:26;21.10;99.90
2907;DHT22;1463;51.070;16.998;2023-07-02T08:19:53;21.00;99.90
2907;DHT22;1463;51.070;16.998;2023-07-02T08:22:22;21.00;99.90
2907;DHT22;1463;51.070;16.998;2023-07-02T08:24:49;21.00;99.90
2907;DHT22;1463;51.070;16.998;2023-07-02T08:27:17;21.10;99.90
2907;DHT22;1463;51.070;16.998;2023-07-02T08:29:45;21.20;99.90
2907;DHT22;1463;51.070;16.998;2023-07-02T08:32:13;21.20;99.90
2907;DHT22;1463;51.070;16.998;2023-07-02T08:34:40;21.30;99.90
2907;DHT22;1463;51.070;16.998;2023-07-02T08:37:08;21.30;99.90
2907;DHT22;1463;51.070;16.998;2023-07-02T08:39:37;21.30;99.90
2907;DHT22;1463;51.070;16.998;2023-07-02T08:42:06;21.30;99.90
2907;DHT22;1463;51.070;16.998;2023-07-02T08:44:34;21.30;99.90
2907;DHT22;1463;51.070;16.998;2023-07-02T08:47:01;21.40;99.90
2907;DHT22;1463;51.070;16.998;2023-07-02T08:49:29;21.30;99.90
2907;DHT22;1463;51.070;16.998;2023-07-02T08:51:57;21.30;99.90
2907;DHT22;1463;51.070;16.998;2023-07-02T08:54:25;21.20;99.90
2907;DHT22;1463;51.070;16.998;2023-07-02T08:56:56;21.00;99.90
2907;DHT22;1463;51.070;16.998;2023-07-02T08:59:24;20.90;99.90
2907;DHT22;1463;51.070;16.998;2023-07-02T09:01:52;20.70;99.90
2907;DHT22;1463;51.070;16.998;2023-07-02T09:04:22;20.60;99.90
2907;DHT22;1463;51.070;16.998;2023-07-02T09:06:51;20.60;99.90
2907;DHT22;1463;51.070;16.998;2023-07-02T09:09:29;20.40;99.90
2907;DHT22;1463;51.070;16.998;2023-07-02T09:11:59;20.40;99.90
2907;DHT22;1463;51.070;16.998;2023-07-02T09:14:28;20.50;99.90
2907;DHT22;1463;51.070;16.998;2023-07-02T09:17:03;20.50;99.90
2907;DHT22;1463;51.070;16.998;2023-07-02T09:19:36;20.60;99.90
2907;DHT22;1463;51.070;16.998;2023-07-02T09:22:16;20.60;99.90
2907;DHT22;1463;51.070;16.998;2023-07-02T09:24:51;20.60;99.90
2907;DHT22;1463;51.070;16.998;2023-07-02T09:27:21;20.60;99.90
2907;DHT22;1463;51.070;16.998;2023-07-02T09:29:52;20.60;99.90
2907;DHT22;1463;51.070;16.998;2023-07-02T09:32:26;20.60;99.90
2907;DHT22;1463;51.070;16.998;2023-07-02T09:34:54;20.60;99.90
2907;DHT22;1463;51.070;16.998;2023-07-02T09:37:22;20.70;99.90
2907;DHT22;1463;51.070;16.998;2023-07-02T09:39:53;20.80;99.90
2907;DHT22;1463;51.070;16.998;2023-07-02T09:42:25;20.80;99.90
2907;DHT22;1463;51.070;16.998;2023-07-02T09:44:56;20.90;99.90
2907;DHT22;1463;51.070;16.998;2023-07-02T09:47:26;21.00;99.90
2907;DHT22;1463;51.070;16.998;2023-07-02T09:49:55;21.00;99.90
2907;DHT22;1463;51.070;16.998;2023-07-02T09:52:25;21.00;99.90
2907;DHT22;1463;51.070;16.998;2023-07-02T09:54:56;21.10;99.90
2907;DHT22;1463;51.070;16.998;2023-07-02T09:57:25;21.20;99.90
2907;DHT22;1463;51.070;16.998;2023-07-02T09:59:58;21.20;99.90
2907;DHT22;1463;51.070;16.998;2023-07-02T10:02:26;21.30;99.90
2907;DHT22;1463;51.070;16.998;2023-07-02T10:04:53;21.40;99.90
2907;DHT22;1463;51.070;16.998;2023-07-02T10:07:33;21.40;99.90
2907;DHT22;1463;51.070;16.998;2023-07-02T10:10:01;21.40;99.90
2907;DHT22;1463;51.070;16.998;2023-07-02T10:12:32;21.30;99.90
2907;DHT22;1463;51.070;16.998;2023-07-02T10:15:01;21.20;99.90
2907;DHT22;1463;51.070;16.998;2023-07-02T10:17:30;21.10;99.90
2907;DHT22;1463;51.070;16.998;2023-07-02T10:19:59;21.20;99.90
2907;DHT22;1463;51.070;16.998;2023-07-02T10:22:42;21.20;99.90
2907;DHT22;1463;51.070;16.998;2023-07-02T10:25:10;21.30;99.90
2907;DHT22;1463;51.070;16.998;2023-07-02T10:27:40;21.20;99.90
2907;DHT22;1463;51.070;16.998;2023-07-02T10:30:09;21.30;99.90
2907;DHT22;1463;51.070;16.998;2023-07-02T10:32:37;21.20;99.90
2907;DHT22;1463;51.070;16.998;2023-07-02T10:35:13;21.20;99.90
2907;DHT22;1463;51.070;16.998;2023-07-02T10:37:41;21.20;99.90
2907;DHT22;1463;51.070;16.998;2023-07-02T10:40:10;21.30;99.90
2907;DHT22;1463;51.070;16.998;2023-07-02T10:42:50;21.40;99.90
2907;DHT22;1463;51.070;16.998;2023-07-02T10:45:18;21.50;99.90
2907;DHT22;1463;51.070;16.998;2023-07-02T10:47:46;21.50;99.90
2907;DHT22;1463;51.070;16.998;2023-07-02T10:50:18;21.60;99.90
2907;DHT22;1463;51.070;16.998;2023-07-02T10:52:49;21.70;99.90
2907;DHT22;1463;51.070;16.998;2023-07-02T10:55:17;21.80;99.90
2907;DHT22;1463;51.070;16.998;2023-07-02T10:57:46;21.90;99.90
2907;DHT22;1463;51.070;16.998;2023-07-02T11:00:15;21.90;99.90
2907;DHT22;1463;51.070;16.998;2023-07-02T11:02:43;22.00;99.90
2907;DHT22;1463;51.070;16.998;2023-07-02T11:05:13;22.10;99.90
2907;DHT22;1463;51.070;16.998;2023-07-02T11:07:43;22.30;99.90
2907;DHT22;1463;51.070;16.998;2023-07-02T11:10:18;22.60;99.90
2907;DHT22;1463;51.070;16.998;2023-07-02T11:12:46;22.90;99.90
2907;DHT22;1463;51.070;16.998;2023-07-02T11:15:16;23.10;99.90
2907;DHT22;1463;51.070;16.998;2023-07-02T11:17:44;23.20;99.90
2907;DHT22;1463;51.070;16.998;2023-07-02T11:20:13;23.30;99.90
2907;DHT22;1463;51.070;16.998;2023-07-02T11:22:41;23.40;99.90
2907;DHT22;1463;51.070;16.998;2023-07-02T11:25:12;23.50;99.90
2907;DHT22;1463;51.070;16.998;2023-07-02T11:27:42;23.50;99.90
2907;DHT22;1463;51.070;16.998;2023-07-02T11:30:12;23.60;99.90
2907;DHT22;1463;51.070;16.998;2023-07-02T11:32:51;23.70;99.90
2907;DHT22;1463;51.070;16.998;2023-07-02T11:35:19;23.80;99.90
2907;DHT22;1463;51.070;16.998;2023-07-02T11:37:47;23.90;99.90
2907;DHT22;1463;51.070;16.998;2023-07-02T11:40:17;24.00;99.90
2907;DHT22;1463;51.070;16.998;2023-07-02T11:42:45;24.00;99.90
2907;DHT22;1463;51.070;16.998;2023-07-02T11:45:13;24.00;99.90
2907;DHT22;1463;51.070;16.998;2023-07-02T11:47:40;24.00;99.90
2907;DHT22;1463;51.070;16.998;2023-07-02T11:50:10;24.00;99.90
2907;DHT22;1463;51.070;16.998;2023-07-02T11:52:38;24.10;99.90
2907;DHT22;1463;51.070;16.998;2023-07-02T11:55:06;24.30;99.90
2907;DHT22;1463;51.070;16.998;2023-07-02T11:57:34;24.40;99.90
2907;DHT22;1463;51.070;16.998;2023-07-02T12:00:02;24.50;99.90
2907;DHT22;1463;51.070;16.998;2023-07-02T12:02:29;24.50;99.90
2907;DHT22;1463;51.070;16.998;2023-07-02T12:04:57;24.70;99.90
2907;DHT22;1463;51.070;16.998;2023-07-02T12:07:26;24.80;99.40
2907;DHT22;1463;51.070;16.998;2023-07-02T12:09:53;24.80;98.50
2907;DHT22;1463;51.070;16.998;2023-07-02T12:12:23;24.90;96.90
2907;DHT22;1463;51.070;16.998;2023-07-02T12:14:53;25.00;96.00
2907;DHT22;1463;51.070;16.998;2023-07-02T12:17:20;24.90;96.00
2907;DHT22;1463;51.070;16.998;2023-07-02T12:19:48;24.90;95.60
2907;DHT22;1463;51.070;16.998;2023-07-02T12:22:15;24.90;95.60
2907;DHT22;1463;51.070;16.998;2023-07-02T12:24:45;25.00;95.30
2907;DHT22;1463;51.070;16.998;2023-07-02T12:27:13;25.10;95.10
2907;DHT22;1463;51.070;16.998;2023-07-02T12:29:40;25.00;94.10
2907;DHT22;1463;51.070;16.998;2023-07-02T12:32:08;25.00;94.50
2907;DHT22;1463;51.070;16.998;2023-07-02T12:34:36;25.20;94.60
2907;DHT22;1463;51.070;16.998;2023-07-02T12:37:04;25.30;93.40
2907;DHT22;1463;51.070;16.998;2023-07-02T12:39:32;25.20;93.40
2907;DHT22;1463;51.070;16.998;2023-07-02T12:42:01;25.00;93.20
2907;DHT22;1463;51.070;16.998;2023-07-02T12:44:29;24.90;93.80
2907;DHT22;1463;51.070;16.998;2023-07-02T12:46:56;24.70;94.30
2907;DHT22;1463;51.070;16.998;2023-07-02T12:49:24;24.60;94.50
2907;DHT22;1463;51.070;16.998;2023-07-02T12:51:51;24.40;94.60
2907;DHT22;1463;51.070;16.998;2023-07-02T12:54:19;24.40;94.30
2907;DHT22;1463;51.070;16.998;2023-07-02T12:56:46;24.50;94.80
2907;DHT22;1463;51.070;16.998;2023-07-02T12:59:16;24.50;94.50
2907;DHT22;1463;51.070;16.998;2023-07-02T13:01:44;24.40;93.90
2907;DHT22;1463;51.070;16.998;2023-07-02T13:04:12;24.60;94.40
2907;DHT22;1463;51.070;16.998;2023-07-02T13:06:40;24.70;94.30
2907;DHT22;1463;51.070;16.998;2023-07-02T13:09:08;24.90;93.10
2907;DHT22;1463;51.070;16.998;2023-07-02T13:11:35;25.00;91.30
2907;DHT22;1463;51.070;16.998;2023-07-02T13:14:04;24.90;90.50
2907;DHT22;1463;51.070;16.998;2023-07-02T13:16:33;24.70;90.90
2907;DHT22;1463;51.070;16.998;2023-07-02T13:19:00;24.80;92.90
2907;DHT22;1463;51.070;16.998;2023-07-02T13:21:28;24.80;90.80
2907;DHT22;1463;51.070;16.998;2023-07-02T13:23:56;24.80;90.80
2907;DHT22;1463;51.070;16.998;2023-07-02T13:26:23;24.70;90.70
2907;DHT22;1463;51.070;16.998;2023-07-02T13:28:51;24.80;90.50
2907;DHT22;1463;51.070;16.998;2023-07-02T13:31:18;24.70;90.70
2907;DHT22;1463;51.070;16.998;2023-07-02T13:33:47;24.80;89.80
2907;DHT22;1463;51.070;16.998;2023-07-02T13:36:18;24.80;86.00
2907;DHT22;1463;51.070;16.998;2023-07-02T13:38:45;24.70;87.20
2907;DHT22;1463;51.070;16.998;2023-07-02T13:41:13;24.80;88.00
2907;DHT22;1463;51.070;16.998;2023-07-02T13:43:40;24.70;86.70
2907;DHT22;1463;51.070;16.998;2023-07-02T13:46:09;24.70;87.00
2907;DHT22;1463;51.070;16.998;2023-07-02T13:48:37;24.70;88.30
2907;DHT22;1463;51.070;16.998;2023-07-02T13:51:06;24.60;89.30
2907;DHT22;1463;51.070;16.998;2023-07-02T13:53:34;24.60;90.10
2907;DHT22;1463;51.070;16.998;2023-07-02T13:56:02;24.70;90.70
2907;DHT22;1463;51.070;16.998;2023-07-02T13:58:58;24.70;89.40
2907;DHT22;1463;51.070;16.998;2023-07-02T14:01:26;24.70;89.50
2907;DHT22;1463;51.070;16.998;2023-07-02T14:03:54;24.70;87.00
2907;DHT22;1463;51.070;16.998;2023-07-02T14:06:29;24.70;85.20
2907;DHT22;1463;51.070;16.998;2023-07-02T14:08:58;24.70;85.50
2907;DHT22;1463;51.070;16.998;2023-07-02T14:11:26;24.70;86.10
2907;DHT22;1463;51.070;16.998;2023-07-02T14:13:59;24.70;87.80
2907;DHT22;1463;51.070;16.998;2023-07-02T14:16:26;24.90;87.00
2907;DHT22;1463;51.070;16.998;2023-07-02T14:18:54;24.90;87.00
2907;DHT22;1463;51.070;16.998;2023-07-02T14:21:24;25.00;86.40
2907;DHT22;1463;51.070;16.998;2023-07-02T14:23:54;25.10;85.90
2907;DHT22;1463;51.070;16.998;2023-07-02T14:26:21;25.00;85.60
2907;DHT22;1463;51.070;16.998;2023-07-02T14:28:49;25.00;85.50
2907;DHT22;1463;51.070;16.998;2023-07-02T14:31:21;25.10;87.40
2907;DHT22;1463;51.070;16.998;2023-07-02T14:33:48;25.00;85.20
2907;DHT22;1463;51.070;16.998;2023-07-02T14:36:16;25.00;87.20
2907;DHT22;1463;51.070;16.998;2023-07-02T14:38:44;25.00;89.10
2907;DHT22;1463;51.070;16.998;2023-07-02T14:41:11;25.00;88.80
2907;DHT22;1463;51.070;16.998;2023-07-02T14:43:39;25.00;90.30
2907;DHT22;1463;51.070;16.998;2023-07-02T14:46:06;25.00;87.30
2907;DHT22;1463;51.070;16.998;2023-07-02T14:48:35;25.00;88.50
2907;DHT22;1463;51.070;16.998;2023-07-02T14:51:03;25.00;88.20
2907;DHT22;1463;51.070;16.998;2023-07-02T14:53:31;25.00;88.10
2907;DHT22;1463;51.070;16.998;2023-07-02T14:56:01;25.00;85.30
2907;DHT22;1463;51.070;16.998;2023-07-02T14:58:30;25.00;83.80
2907;DHT22;1463;51.070;16.998;2023-07-02T15:01:00;24.90;85.00
2907;DHT22;1463;51.070;16.998;2023-07-02T15:03:28;24.80;88.30
2907;DHT22;1463;51.070;16.998;2023-07-02T15:06:07;24.90;85.30
2907;DHT22;1463;51.070;16.998;2023-07-02T15:08:35;24.90;89.40
2907;DHT22;1463;51.070;16.998;2023-07-02T15:11:03;24.90;85.50
2907;DHT22;1463;51.070;16.998;2023-07-02T15:13:31;24.90;85.60
2907;DHT22;1463;51.070;16.998;2023-07-02T15:16:02;24.80;85.70
2907;DHT22;1463;51.070;16.998;2023-07-02T15:18:29;24.80;86.60
2907;DHT22;1463;51.070;16.998;2023-07-02T15:20:57;24.80;84.40
2907;DHT22;1463;51.070;16.998;2023-07-02T15:23:27;24.90;86.90
2907;DHT22;1463;51.070;16.998;2023-07-02T15:25:56;24.90;84.50
2907;DHT22;1463;51.070;16.998;2023-07-02T15:28:25;24.90;85.20
2907;DHT22;1463;51.070;16.998;2023-07-02T15:30:57;25.00;82.90
2907;DHT22;1463;51.070;16.998;2023-07-02T15:33:25;25.00;83.70
2907;DHT22;1463;51.070;16.998;2023-07-02T15:35:58;24.90;82.30
2907;DHT22;1463;51.070;16.998;2023-07-02T15:38:30;24.90;82.30
2907;DHT22;1463;51.070;16.998;2023-07-02T15:41:06;24.90;81.80
2907;DHT22;1463;51.070;16.998;2023-07-02T15:43:34;24.90;82.10
2907;DHT22;1463;51.070;16.998;2023-07-02T15:46:02;24.80;83.60
2907;DHT22;1463;51.070;16.998;2023-07-02T15:48:30;24.90;83.10
2907;DHT22;1463;51.070;16.998;2023-07-02T15:51:02;24.90;83.30
2907;DHT22;1463;51.070;16.998;2023-07-02T15:53:32;24.90;83.60